• vieta
  • image
  • image
  • image
mod_vvisit_countermod_vvisit_countermod_vvisit_countermod_vvisit_countermod_vvisit_countermod_vvisit_counter
mod_vvisit_counterŠiandien223
mod_vvisit_counterVakar268
mod_vvisit_counterŠią savaitę919
mod_vvisit_counterPraėjusią savaitę2802
mod_vvisit_counterŠį mėnesį223
mod_vvisit_counterPraėjusį mėnesį11404
mod_vvisit_counterViso164033

Mes turime: 14 svečius online
Jūsų IP: 54.167.252.62
 , 
Šiandien: Lie 01, 2015

Šiandien

Trečiadienis, 01 Liepa 2015

Orų prognozė

Šiauliai 22 °C
   

Orų prognozė aviacijai

[source: ADDS]
METAR
EYSA 011450Z 34013KT CAVOK 22/06 Q1023 =
TAF
TAF EYSA 011400Z 0115/0124 36012KT 9000 SCT030 =
SR / SS: 01:53 / 19:10 UTC (EYSA 2015-07-01)

Lankytojai

Mes turime 14 svečius online

tic logo lt

Paieška